createdAt,value
2019-05-11T17:43:30.583Z,74.94
2019-05-11T17:46:00.170Z,76.12
2019-05-11T18:50:29.370Z,82.07
2019-05-11T18:52:49.005Z,81.82
2019-05-11T19:11:48.679Z,82.73
2019-05-11T19:14:18.177Z,82.42
2019-05-11T19:25:25.866Z,82.72
2019-05-11T19:28:20.013Z,82.03
2019-05-11T19:30:49.541Z,82.11
2019-05-11T19:33:19.264Z,82.43
2019-05-11T19:35:48.809Z,81.76
2019-05-11T19:38:18.936Z,82.40
2019-05-11T19:40:48.762Z,82.30
2019-05-11T19:43:18.700Z,82.62
2019-05-11T19:45:48.808Z,82.33
2019-05-11T19:48:18.515Z,82.41
2019-05-11T19:51:02.733Z,82.53
2019-05-11T19:53:19.597Z,82.61
2019-05-11T19:55:49.178Z,82.81
2019-05-11T19:58:19.441Z,83.33
2019-05-11T20:00:49.148Z,83.16
2019-05-11T20:03:18.744Z,83.56
2019-05-11T20:05:48.660Z,83.55
2019-05-11T20:08:18.580Z,83.72
2019-05-11T20:10:48.765Z,82.97
2019-05-11T20:13:18.782Z,83.16
2019-05-11T20:15:48.567Z,82.91
2019-05-11T20:18:18.501Z,83.22
2019-05-11T20:20:48.205Z,83.71
2019-05-11T20:23:17.850Z,83.37
2019-05-11T20:25:47.846Z,82.41
2019-05-11T20:28:18.286Z,82.88
2019-05-11T20:30:48.408Z,82.29
2019-05-11T20:33:18.985Z,82.45
2019-05-11T20:35:48.909Z,82.83
2019-05-11T20:38:18.859Z,83.12
2019-05-11T20:40:48.809Z,82.84
2019-05-11T20:43:18.726Z,82.99
2019-05-11T20:45:48.830Z,82.71
2019-05-11T20:48:21.210Z,83.20
2019-05-11T20:50:50.808Z,82.98
2019-05-11T20:53:20.214Z,82.65
2019-05-11T20:55:49.871Z,82.14
2019-05-11T20:58:19.375Z,82.97
2019-05-11T21:00:49.223Z,82.96
2019-05-11T21:03:18.987Z,83.14
2019-05-11T21:05:48.536Z,82.97
2019-05-11T21:08:18.182Z,82.48
2019-05-11T21:10:48.975Z,82.62
2019-05-11T21:13:18.644Z,82.27
2019-05-11T21:15:48.137Z,82.07
2019-05-11T21:18:18.507Z,81.83
2019-05-11T21:20:48.460Z,82.34
2019-05-11T21:23:18.725Z,81.78
2019-05-11T21:25:48.339Z,81.97
2019-05-11T21:28:17.863Z,81.42
2019-05-11T21:30:48.067Z,81.80
2019-05-11T21:33:18.000Z,80.78
2019-05-11T21:35:48.926Z,81.17
2019-05-11T21:38:18.655Z,81.48
2019-05-11T21:40:48.603Z,81.38
2019-05-11T21:43:18.212Z,82.14
2019-05-11T21:45:47.798Z,82.28
2019-05-11T21:48:17.356Z,81.88
2019-05-11T21:50:46.848Z,82.27
2019-05-11T21:53:18.464Z,81.98
2019-05-11T21:55:48.009Z,82.73
2019-05-11T21:58:18.372Z,82.94
2019-05-11T22:00:49.988Z,82.14
2019-05-11T22:03:19.634Z,82.58
2019-05-11T22:05:49.126Z,82.98
2019-05-11T22:08:18.873Z,82.00
2019-05-11T22:10:48.877Z,81.79
2019-05-11T22:13:20.611Z,82.38
2019-05-11T22:15:49.780Z,81.77
2019-05-11T22:18:30.225Z,82.33
2019-05-11T22:20:50.722Z,82.23
2019-05-11T22:23:20.303Z,82.35
2019-05-11T22:25:50.587Z,82.88
2019-05-11T22:28:20.393Z,82.33
2019-05-11T22:30:49.957Z,82.10
2019-05-11T22:33:19.561Z,82.37
2019-05-11T22:35:49.132Z,83.01
2019-05-11T22:38:18.683Z,82.95
2019-05-11T22:40:48.759Z,83.37
2019-05-11T22:43:18.802Z,83.71
2019-05-11T22:45:48.610Z,83.56
2019-05-11T22:48:18.335Z,82.89
2019-05-11T22:50:48.060Z,82.34
2019-05-11T22:53:19.041Z,82.24
2019-05-11T22:55:48.653Z,82.91
2019-05-11T22:58:18.235Z,82.92
2019-05-11T23:00:47.750Z,83.19
2019-05-11T23:03:19.162Z,82.72
2019-05-11T23:05:48.530Z,82.38
2019-05-11T23:08:18.242Z,82.71
2019-05-11T23:10:47.978Z,82.58
2019-05-11T23:13:18.687Z,82.86
2019-05-11T23:15:48.374Z,82.58
2019-05-11T23:18:18.162Z,82.40
2019-05-11T23:20:47.949Z,82.33
2019-05-11T23:23:17.829Z,82.47
2019-05-11T23:25:47.464Z,83.08
2019-05-11T23:28:18.429Z,82.75
2019-05-11T23:30:48.180Z,82.35
2019-05-11T23:33:18.388Z,81.56
2019-05-11T23:35:48.589Z,82.97
2019-05-11T23:38:18.203Z,82.86
2019-05-11T23:40:48.246Z,81.54
2019-05-11T23:43:19.197Z,82.05
2019-05-11T23:45:48.881Z,82.61
2019-05-11T23:48:18.446Z,82.60
2019-05-11T23:50:47.997Z,81.96
2019-05-11T23:53:17.898Z,81.96
2019-05-11T23:55:48.366Z,82.33
2019-05-11T23:58:19.377Z,81.63
